sensor_id;sensor_type;location;lat;lon;timestamp;pressure;altitude;pressure_sealevel;temperature
64600;BMP280;6553;48.412;9.514;2024-01-30T00:02:15;71583.38;;;19.09
64600;BMP280;6553;48.412;9.514;2024-01-30T00:04:41;71587.47;;;19.15
64600;BMP280;6553;48.412;9.514;2024-01-30T00:07:07;71588.56;;;19.16
64600;BMP280;6553;48.412;9.514;2024-01-30T00:09:33;71589.72;;;19.15
64600;BMP280;6553;48.412;9.514;2024-01-30T00:11:59;71588.69;;;19.14
64600;BMP280;6553;48.412;9.514;2024-01-30T00:14:24;71590.25;;;19.15
64600;BMP280;6553;48.412;9.514;2024-01-30T00:16:51;71590.91;;;19.13
64600;BMP280;6553;48.412;9.514;2024-01-30T00:19:17;71589.31;;;19.12
64600;BMP280;6553;48.412;9.514;2024-01-30T00:21:43;71582.63;;;19.13
64600;BMP280;6553;48.412;9.514;2024-01-30T00:24:09;71586.53;;;19.12
64600;BMP280;6553;48.412;9.514;2024-01-30T00:26:35;71588.22;;;19.11
64600;BMP280;6553;48.412;9.514;2024-01-30T00:29:01;71582.06;;;19.13
64600;BMP280;6553;48.412;9.514;2024-01-30T00:31:26;71578.91;;;19.10
64600;BMP280;6553;48.412;9.514;2024-01-30T00:33:52;71587.06;;;19.12
64600;BMP280;6553;48.412;9.514;2024-01-30T00:36:18;71588.69;;;19.14
64600;BMP280;6553;48.412;9.514;2024-01-30T00:38:43;71584.44;;;19.10
64600;BMP280;6553;48.412;9.514;2024-01-30T00:41:09;71581.53;;;19.12
64600;BMP280;6553;48.412;9.514;2024-01-30T00:43:36;71581.13;;;19.09
64600;BMP280;6553;48.412;9.514;2024-01-30T00:46:03;71587.59;;;19.13
64600;BMP280;6553;48.412;9.514;2024-01-30T00:48:29;71587.19;;;19.10
64600;BMP280;6553;48.412;9.514;2024-01-30T00:50:55;71576.75;;;19.08
64600;BMP280;6553;48.412;9.514;2024-01-30T00:53:20;71587.06;;;19.12
64600;BMP280;6553;48.412;9.514;2024-01-30T00:55:46;71581.00;;;19.12
64600;BMP280;6553;48.412;9.514;2024-01-30T00:58:12;71582.06;;;19.13
64600;BMP280;6553;48.412;9.514;2024-01-30T01:00:39;71588.69;;;19.14
64600;BMP280;6553;48.412;9.514;2024-01-30T01:03:05;71583.38;;;19.09
64600;BMP280;6553;48.412;9.514;2024-01-30T01:05:30;71583.91;;;19.09
64600;BMP280;6553;48.412;9.514;2024-01-30T01:07:56;71584.44;;;19.10
64600;BMP280;6553;48.412;9.514;2024-01-30T01:10:22;71583.38;;;19.09
64600;BMP280;6553;48.412;9.514;2024-01-30T01:12:48;71584.44;;;19.10
64600;BMP280;6553;48.412;9.514;2024-01-30T01:15:14;71580.59;;;19.09
64600;BMP280;6553;48.412;9.514;2024-01-30T01:17:40;71581.00;;;19.12
64600;BMP280;6553;48.412;9.514;2024-01-30T01:20:07;71585.47;;;19.11
64600;BMP280;6553;48.412;9.514;2024-01-30T01:22:34;71578.38;;;19.09
64600;BMP280;6553;48.412;9.514;2024-01-30T01:25:01;71592.59;;;19.12
64600;BMP280;6553;48.412;9.514;2024-01-30T01:27:27;71581.13;;;19.09
64600;BMP280;6553;48.412;9.514;2024-01-30T01:29:53;71578.47;;;19.07
64600;BMP280;6553;48.412;9.514;2024-01-30T01:32:19;71576.22;;;19.07
64600;BMP280;6553;48.412;9.514;2024-01-30T01:34:45;71579.41;;;19.10
64600;BMP280;6553;48.412;9.514;2024-01-30T01:37:11;71579.00;;;19.07
64600;BMP280;6553;48.412;9.514;2024-01-30T01:39:37;71576.88;;;19.05
64600;BMP280;6553;48.412;9.514;2024-01-30T01:42:03;71574.09;;;19.05
64600;BMP280;6553;48.412;9.514;2024-01-30T01:44:29;71580.59;;;19.09
64600;BMP280;6553;48.412;9.514;2024-01-30T01:46:56;71581.13;;;19.09
64600;BMP280;6553;48.412;9.514;2024-01-30T01:49:25;71584.53;;;19.07
64600;BMP280;6553;48.412;9.514;2024-01-30T01:51:53;71580.16;;;19.06
64600;BMP280;6553;48.412;9.514;2024-01-30T01:54:20;71577.94;;;19.06
64600;BMP280;6553;48.412;9.514;2024-01-30T01:56:46;71579.63;;;19.05
64600;BMP280;6553;48.412;9.514;2024-01-30T01:59:12;71573.59;;;19.05
64600;BMP280;6553;48.412;9.514;2024-01-30T02:01:38;71579.53;;;19.08
64600;BMP280;6553;48.412;9.514;2024-01-30T02:04:07;71584.44;;;19.10
64600;BMP280;6553;48.412;9.514;2024-01-30T02:06:35;71574.63;;;19.06
64600;BMP280;6553;48.412;9.514;2024-01-30T02:09:01;71581.13;;;19.09
64600;BMP280;6553;48.412;9.514;2024-01-30T02:11:28;71572.50;;;19.04
64600;BMP280;6553;48.412;9.514;2024-01-30T02:13:53;71575.16;;;19.06
64600;BMP280;6553;48.412;9.514;2024-01-30T02:16:19;71582.94;;;19.06
64600;BMP280;6553;48.412;9.514;2024-01-30T02:18:45;71574.63;;;19.06
64600;BMP280;6553;48.412;9.514;2024-01-30T02:21:17;71574.63;;;19.06
64600;BMP280;6553;48.412;9.514;2024-01-30T02:23:46;71578.03;;;19.04
64600;BMP280;6553;48.412;9.514;2024-01-30T02:26:12;71572.50;;;19.04
64600;BMP280;6553;48.412;9.514;2024-01-30T02:28:38;71579.13;;;19.05
64600;BMP280;6553;48.412;9.514;2024-01-30T02:31:05;71574.75;;;19.03
64600;BMP280;6553;48.412;9.514;2024-01-30T02:33:31;71577.94;;;19.06
64600;BMP280;6553;48.412;9.514;2024-01-30T02:35:56;71573.59;;;19.05
64600;BMP280;6553;48.412;9.514;2024-01-30T02:38:22;71576.47;;;19.02
64600;BMP280;6553;48.412;9.514;2024-01-30T02:40:49;71575.72;;;19.07
64600;BMP280;6553;48.412;9.514;2024-01-30T02:43:16;71572.00;;;19.03
64600;BMP280;6553;48.412;9.514;2024-01-30T02:45:42;71580.16;;;19.06
64600;BMP280;6553;48.412;9.514;2024-01-30T02:48:08;71573.16;;;19.02
64600;BMP280;6553;48.412;9.514;2024-01-30T02:50:34;71573.59;;;19.05
64600;BMP280;6553;48.412;9.514;2024-01-30T02:53:00;71574.63;;;19.06
64600;BMP280;6553;48.412;9.514;2024-01-30T02:55:26;71578.03;;;19.04
64600;BMP280;6553;48.412;9.514;2024-01-30T02:57:51;71573.59;;;19.05
64600;BMP280;6553;48.412;9.514;2024-01-30T03:00:19;71573.06;;;19.04
64600;BMP280;6553;48.412;9.514;2024-01-30T03:02:45;71578.47;;;19.07
64600;BMP280;6553;48.412;9.514;2024-01-30T03:05:11;71574.09;;;19.05
64600;BMP280;6553;48.412;9.514;2024-01-30T03:07:36;71575.81;;;19.04
64600;BMP280;6553;48.412;9.514;2024-01-30T03:10:04;71575.81;;;19.04
64600;BMP280;6553;48.412;9.514;2024-01-30T03:12:31;71572.00;;;19.03
64600;BMP280;6553;48.412;9.514;2024-01-30T03:14:57;71574.09;;;19.05
64600;BMP280;6553;48.412;9.514;2024-01-30T03:17:23;71570.38;;;19.02
64600;BMP280;6553;48.412;9.514;2024-01-30T03:19:50;71574.34;;;19.00
64600;BMP280;6553;48.412;9.514;2024-01-30T03:22:15;71572.75;;;18.99
64600;BMP280;6553;48.412;9.514;2024-01-30T03:24:41;71555.00;;;18.87
64600;BMP280;6553;48.412;9.514;2024-01-30T03:27:08;71567.22;;;18.99
64600;BMP280;6553;48.412;9.514;2024-01-30T03:29:33;71568.38;;;18.97
64600;BMP280;6553;48.412;9.514;2024-01-30T03:31:59;71574.34;;;19.00
64600;BMP280;6553;48.412;9.514;2024-01-30T03:34:25;71577.00;;;19.03
64600;BMP280;6553;48.412;9.514;2024-01-30T03:36:51;71569.34;;;19.01
64600;BMP280;6553;48.412;9.514;2024-01-30T03:39:17;71574.88;;;19.01
64600;BMP280;6553;48.412;9.514;2024-01-30T03:41:43;71567.22;;;18.99
64600;BMP280;6553;48.412;9.514;2024-01-30T03:44:10;71571.06;;;19.00
64600;BMP280;6553;48.412;9.514;2024-01-30T03:46:36;71570.38;;;19.02
64600;BMP280;6553;48.412;9.514;2024-01-30T03:49:02;71570.38;;;19.02
64600;BMP280;6553;48.412;9.514;2024-01-30T03:51:28;71578.16;;;19.01
64600;BMP280;6553;48.412;9.514;2024-01-30T03:53:53;71576.47;;;19.02
64600;BMP280;6553;48.412;9.514;2024-01-30T03:56:19;71573.81;;;19.00
64600;BMP280;6553;48.412;9.514;2024-01-30T03:58:45;71572.09;;;19.01
64600;BMP280;6553;48.412;9.514;2024-01-30T04:01:14;71577.63;;;19.01
64600;BMP280;6553;48.412;9.514;2024-01-30T04:03:41;71566.13;;;18.98
64600;BMP280;6553;48.412;9.514;2024-01-30T04:06:07;71568.91;;;18.98
64600;BMP280;6553;48.412;9.514;2024-01-30T04:08:33;71567.97;;;18.94
64600;BMP280;6553;48.412;9.514;2024-01-30T04:10:59;71567.75;;;18.99
64600;BMP280;6553;48.412;9.514;2024-01-30T04:13:28;71566.69;;;18.98
64600;BMP280;6553;48.412;9.514;2024-01-30T04:15:54;71565.59;;;18.97
64600;BMP280;6553;48.412;9.514;2024-01-30T04:18:20;71576.03;;;18.99
64600;BMP280;6553;48.412;9.514;2024-01-30T04:20:46;71570.38;;;19.02
64600;BMP280;6553;48.412;9.514;2024-01-30T04:23:12;71569.97;;;18.99
64600;BMP280;6553;48.412;9.514;2024-01-30T04:25:38;71567.22;;;18.99
64600;BMP280;6553;48.412;9.514;2024-01-30T04:28:04;71571.66;;;18.98
64600;BMP280;6553;48.412;9.514;2024-01-30T04:30:29;71572.75;;;18.99
64600;BMP280;6553;48.412;9.514;2024-01-30T04:32:55;71571.13;;;18.97
64600;BMP280;6553;48.412;9.514;2024-01-30T04:35:21;71562.56;;;18.92
64600;BMP280;6553;48.412;9.514;2024-01-30T04:37:52;71564.03;;;18.96
64600;BMP280;6553;48.412;9.514;2024-01-30T04:40:18;71567.75;;;18.99
64600;BMP280;6553;48.412;9.514;2024-01-30T04:42:44;71563.59;;;18.93
64600;BMP280;6553;48.412;9.514;2024-01-30T04:45:09;71573.38;;;18.97
64600;BMP280;6553;48.412;9.514;2024-01-30T04:47:35;71564.03;;;18.96
64600;BMP280;6553;48.412;9.514;2024-01-30T04:50:01;71571.56;;;19.00
64600;BMP280;6553;48.412;9.514;2024-01-30T04:52:30;71572.75;;;18.99
64600;BMP280;6553;48.412;9.514;2024-01-30T04:54:55;71561.88;;;18.94
64600;BMP280;6553;48.412;9.514;2024-01-30T04:57:21;71573.28;;;18.99
64600;BMP280;6553;48.412;9.514;2024-01-30T04:59:47;71571.13;;;18.97
64600;BMP280;6553;48.412;9.514;2024-01-30T05:02:12;71565.06;;;18.97
64600;BMP280;6553;48.412;9.514;2024-01-30T05:04:40;71570.59;;;18.97
64600;BMP280;6553;48.412;9.514;2024-01-30T05:07:06;71560.44;;;18.90
64600;BMP280;6553;48.412;9.514;2024-01-30T05:09:32;71565.72;;;18.95
64600;BMP280;6553;48.412;9.514;2024-01-30T05:11:57;71564.03;;;18.96
64600;BMP280;6553;48.412;9.514;2024-01-30T05:14:23;71568.50;;;18.95
64600;BMP280;6553;48.412;9.514;2024-01-30T05:16:49;71560.31;;;18.92
64600;BMP280;6553;48.412;9.514;2024-01-30T05:19:15;71565.72;;;18.95
64600;BMP280;6553;48.412;9.514;2024-01-30T05:21:41;71565.72;;;18.95
64600;BMP280;6553;48.412;9.514;2024-01-30T05:24:07;71561.88;;;18.94
64600;BMP280;6553;48.412;9.514;2024-01-30T05:26:35;71562.44;;;18.94
64600;BMP280;6553;48.412;9.514;2024-01-30T05:29:01;71561.88;;;18.94
64600;BMP280;6553;48.412;9.514;2024-01-30T05:31:26;71562.44;;;18.94
64600;BMP280;6553;48.412;9.514;2024-01-30T05:33:52;71567.41;;;18.94
64600;BMP280;6553;48.412;9.514;2024-01-30T05:36:18;71565.72;;;18.95
64600;BMP280;6553;48.412;9.514;2024-01-30T05:38:44;71562.44;;;18.94
64600;BMP280;6553;48.412;9.514;2024-01-30T05:41:09;71559.25;;;18.91
64600;BMP280;6553;48.412;9.514;2024-01-30T05:43:35;71564.66;;;18.94
64600;BMP280;6553;48.412;9.514;2024-01-30T05:46:01;71569.56;;;18.96
64600;BMP280;6553;48.412;9.514;2024-01-30T05:48:26;71570.09;;;18.96
64600;BMP280;6553;48.412;9.514;2024-01-30T05:50:52;71564.03;;;18.96
64600;BMP280;6553;48.412;9.514;2024-01-30T05:53:18;71562.66;;;18.89
64600;BMP280;6553;48.412;9.514;2024-01-30T05:55:44;71559.25;;;18.91
64600;BMP280;6553;48.412;9.514;2024-01-30T05:58:09;71558.19;;;18.90
64600;BMP280;6553;48.412;9.514;2024-01-30T06:00:35;71560.94;;;18.90
64600;BMP280;6553;48.412;9.514;2024-01-30T06:03:01;71553.41;;;18.86
64600;BMP280;6553;48.412;9.514;2024-01-30T06:05:26;71561.47;;;18.91
64600;BMP280;6553;48.412;9.514;2024-01-30T06:07:52;71559.47;;;18.86
64600;BMP280;6553;48.412;9.514;2024-01-30T06:10:18;71558.41;;;18.85
64600;BMP280;6553;48.412;9.514;2024-01-30T06:12:44;71556.59;;;18.89
64600;BMP280;6553;48.412;9.514;2024-01-30T06:15:10;71561.47;;;18.91
64600;BMP280;6553;48.412;9.514;2024-01-30T06:17:37;71548.84;;;18.76
64600;BMP280;6553;48.412;9.514;2024-01-30T06:20:04;71556.19;;;18.86
64600;BMP280;6553;48.412;9.514;2024-01-30T06:22:30;71556.28;;;18.83
64600;BMP280;6553;48.412;9.514;2024-01-30T06:24:55;71557.34;;;18.84
64600;BMP280;6553;48.412;9.514;2024-01-30T06:27:21;71557.22;;;18.87
64600;BMP280;6553;48.412;9.514;2024-01-30T06:29:47;71556.72;;;18.86
64600;BMP280;6553;48.412;9.514;2024-01-30T06:32:12;71556.72;;;18.86
64600;BMP280;6553;48.412;9.514;2024-01-30T06:34:38;71558.94;;;18.86
64600;BMP280;6553;48.412;9.514;2024-01-30T06:37:05;71556.06;;;18.88
64600;BMP280;6553;48.412;9.514;2024-01-30T06:39:31;71558.19;;;18.90
64600;BMP280;6553;48.412;9.514;2024-01-30T06:41:57;71563.19;;;18.90
64600;BMP280;6553;48.412;9.514;2024-01-30T06:44:22;71557.66;;;18.90
64600;BMP280;6553;48.412;9.514;2024-01-30T06:46:48;71555.53;;;18.88
64600;BMP280;6553;48.412;9.514;2024-01-30T06:49:14;71567.97;;;18.94
64600;BMP280;6553;48.412;9.514;2024-01-30T06:51:40;71560.31;;;18.92
64600;BMP280;6553;48.412;9.514;2024-01-30T06:54:05;71565.31;;;18.92
64600;BMP280;6553;48.412;9.514;2024-01-30T06:56:31;71561.34;;;18.93
64600;BMP280;6553;48.412;9.514;2024-01-30T06:58:57;71560.31;;;18.92
64600;BMP280;6553;48.412;9.514;2024-01-30T07:01:29;71562.56;;;18.92
64600;BMP280;6553;48.412;9.514;2024-01-30T07:03:55;71565.41;;;18.89
64600;BMP280;6553;48.412;9.514;2024-01-30T07:06:21;71558.19;;;18.90
64600;BMP280;6553;48.412;9.514;2024-01-30T07:08:49;71549.38;;;18.77
64600;BMP280;6553;48.412;9.514;2024-01-30T07:11:22;71556.72;;;18.86
64600;BMP280;6553;48.412;9.514;2024-01-30T07:13:48;71560.00;;;18.87
64600;BMP280;6553;48.412;9.514;2024-01-30T07:16:15;71560.00;;;18.87
64600;BMP280;6553;48.412;9.514;2024-01-30T07:18:41;71554.47;;;18.87
64600;BMP280;6553;48.412;9.514;2024-01-30T07:21:06;71554.47;;;18.87
64600;BMP280;6553;48.412;9.514;2024-01-30T07:23:32;71557.13;;;18.89
64600;BMP280;6553;48.412;9.514;2024-01-30T07:26:01;71556.59;;;18.89
64600;BMP280;6553;48.412;9.514;2024-01-30T07:28:27;71558.81;;;18.88
64600;BMP280;6553;48.412;9.514;2024-01-30T07:30:52;71560.44;;;18.90
64600;BMP280;6553;48.412;9.514;2024-01-30T07:33:18;71559.47;;;18.86
64600;BMP280;6553;48.412;9.514;2024-01-30T07:35:45;71562.56;;;18.92
64600;BMP280;6553;48.412;9.514;2024-01-30T07:38:11;71557.66;;;18.90
64600;BMP280;6553;48.412;9.514;2024-01-30T07:40:37;71561.34;;;18.93
64600;BMP280;6553;48.412;9.514;2024-01-30T07:43:03;71559.34;;;18.89
64600;BMP280;6553;48.412;9.514;2024-01-30T07:45:29;71556.72;;;18.86
64600;BMP280;6553;48.412;9.514;2024-01-30T07:47:58;71558.72;;;18.91
64600;BMP280;6553;48.412;9.514;2024-01-30T07:50:25;71564.25;;;18.91
64600;BMP280;6553;48.412;9.514;2024-01-30T07:52:51;71556.06;;;18.88
64600;BMP280;6553;48.412;9.514;2024-01-30T07:55:21;71564.25;;;18.91
64600;BMP280;6553;48.412;9.514;2024-01-30T07:57:52;71562.66;;;18.89
64600;BMP280;6553;48.412;9.514;2024-01-30T08:00:19;71559.34;;;18.89
64600;BMP280;6553;48.412;9.514;2024-01-30T08:02:45;71553.94;;;18.86
64600;BMP280;6553;48.412;9.514;2024-01-30T08:05:11;71556.06;;;18.88
64600;BMP280;6553;48.412;9.514;2024-01-30T08:07:37;71556.72;;;18.86
64600;BMP280;6553;48.412;9.514;2024-01-30T08:10:03;71557.66;;;18.90
64600;BMP280;6553;48.412;9.514;2024-01-30T08:12:29;71554.47;;;18.87
64600;BMP280;6553;48.412;9.514;2024-01-30T08:14:55;71554.47;;;18.87
64600;BMP280;6553;48.412;9.514;2024-01-30T08:17:20;71561.59;;;18.88
64600;BMP280;6553;48.412;9.514;2024-01-30T08:19:46;71555.53;;;18.88
64600;BMP280;6553;48.412;9.514;2024-01-30T08:22:12;71555.66;;;18.85
64600;BMP280;6553;48.412;9.514;2024-01-30T08:24:38;71552.03;;;18.79
64600;BMP280;6553;48.412;9.514;2024-01-30T08:27:06;71565.84;;;18.92
64600;BMP280;6553;48.412;9.514;2024-01-30T08:29:37;71558.72;;;18.91
64600;BMP280;6553;48.412;9.514;2024-01-30T08:32:05;71564.13;;;18.93
64600;BMP280;6553;48.412;9.514;2024-01-30T08:34:32;71567.97;;;18.94
64600;BMP280;6553;48.412;9.514;2024-01-30T08:36:58;71564.25;;;18.91
64600;BMP280;6553;48.412;9.514;2024-01-30T08:39:24;71560.94;;;18.90
64600;BMP280;6553;48.412;9.514;2024-01-30T08:41:50;71557.66;;;18.90
64600;BMP280;6553;48.412;9.514;2024-01-30T08:44:16;71565.31;;;18.92
64600;BMP280;6553;48.412;9.514;2024-01-30T08:46:46;71558.72;;;18.91
64600;BMP280;6553;48.412;9.514;2024-01-30T08:49:13;71562.13;;;18.89
64600;BMP280;6553;48.412;9.514;2024-01-30T08:51:39;71558.19;;;18.90
64600;BMP280;6553;48.412;9.514;2024-01-30T08:54:05;71557.66;;;18.90
64600;BMP280;6553;48.412;9.514;2024-01-30T08:56:31;71566.38;;;18.93
64600;BMP280;6553;48.412;9.514;2024-01-30T08:58:57;71561.34;;;18.93
64600;BMP280;6553;48.412;9.514;2024-01-30T09:01:22;71562.97;;;18.95
64600;BMP280;6553;48.412;9.514;2024-01-30T09:03:48;71567.84;;;18.97
64600;BMP280;6553;48.412;9.514;2024-01-30T09:06:14;71571.66;;;18.98
64600;BMP280;6553;48.412;9.514;2024-01-30T09:08:40;71572.75;;;18.99
64600;BMP280;6553;48.412;9.514;2024-01-30T09:11:14;71573.81;;;19.00
64600;BMP280;6553;48.412;9.514;2024-01-30T09:13:40;71575.38;;;19.01
64600;BMP280;6553;48.412;9.514;2024-01-30T09:16:06;71570.94;;;19.02
64600;BMP280;6553;48.412;9.514;2024-01-30T09:18:32;71570.94;;;19.02
64600;BMP280;6553;48.412;9.514;2024-01-30T09:20:58;71572.00;;;19.03
64600;BMP280;6553;48.412;9.514;2024-01-30T09:23:25;71581.66;;;19.10
64600;BMP280;6553;48.412;9.514;2024-01-30T09:25:50;71578.91;;;19.10
64600;BMP280;6553;48.412;9.514;2024-01-30T09:28:17;71577.84;;;19.09
64600;BMP280;6553;48.412;9.514;2024-01-30T09:30:43;71580.47;;;19.11
64600;BMP280;6553;48.412;9.514;2024-01-30T09:33:09;71578.91;;;19.10
64600;BMP280;6553;48.412;9.514;2024-01-30T09:35:39;71579.53;;;19.08
64600;BMP280;6553;48.412;9.514;2024-01-30T09:38:04;71581.66;;;19.10
64600;BMP280;6553;48.412;9.514;2024-01-30T09:40:30;71584.19;;;19.15
64600;BMP280;6553;48.412;9.514;2024-01-30T09:42:58;71587.59;;;19.13
64600;BMP280;6553;48.412;9.514;2024-01-30T09:45:26;71584.31;;;19.12
64600;BMP280;6553;48.412;9.514;2024-01-30T09:47:52;71589.31;;;19.12
64600;BMP280;6553;48.412;9.514;2024-01-30T09:50:19;71592.47;;;19.15
64600;BMP280;6553;48.412;9.514;2024-01-30T09:52:47;71588.56;;;19.16
64600;BMP280;6553;48.412;9.514;2024-01-30T09:55:13;71586.88;;;19.17
64600;BMP280;6553;48.412;9.514;2024-01-30T09:57:39;71592.91;;;19.18
64600;BMP280;6553;48.412;9.514;2024-01-30T10:00:06;71589.72;;;19.15
64600;BMP280;6553;48.412;9.514;2024-01-30T10:02:39;71590.69;;;19.18
64600;BMP280;6553;48.412;9.514;2024-01-30T10:05:06;71587.47;;;19.15
64600;BMP280;6553;48.412;9.514;2024-01-30T10:07:31;71584.31;;;19.12
64600;BMP280;6553;48.412;9.514;2024-01-30T10:09:57;71593.97;;;19.19
64600;BMP280;6553;48.412;9.514;2024-01-30T10:12:26;71597.81;;;19.20
64600;BMP280;6553;48.412;9.514;2024-01-30T10:14:52;71589.19;;;19.14
64600;BMP280;6553;48.412;9.514;2024-01-30T10:17:18;71596.22;;;19.18
64600;BMP280;6553;48.412;9.514;2024-01-30T10:19:43;71587.91;;;19.18
64600;BMP280;6553;48.412;9.514;2024-01-30T10:22:10;71590.03;;;19.20
64600;BMP280;6553;48.412;9.514;2024-01-30T10:24:36;71591.63;;;19.22
64600;BMP280;6553;48.412;9.514;2024-01-30T10:27:02;71588.97;;;19.19
64600;BMP280;6553;48.412;9.514;2024-01-30T10:29:29;71592.28;;;19.20
64600;BMP280;6553;48.412;9.514;2024-01-30T10:32:02;71598.22;;;19.23
64600;BMP280;6553;48.412;9.514;2024-01-30T10:34:28;71593.44;;;19.18
64600;BMP280;6553;48.412;9.514;2024-01-30T10:37:09;71599.38;;;19.21
64600;BMP280;6553;48.412;9.514;2024-01-30T10:39:39;71595.47;;;19.23
64600;BMP280;6553;48.412;9.514;2024-01-30T10:42:07;71594.50;;;19.19
64600;BMP280;6553;48.412;9.514;2024-01-30T10:47:29;71593.22;;;19.23
64600;BMP280;6553;48.412;9.514;2024-01-30T10:49:56;71600.34;;;19.25
64600;BMP280;6553;48.412;9.514;2024-01-30T10:52:26;71600.34;;;19.25
64600;BMP280;6553;48.412;9.514;2024-01-30T10:54:54;71600.88;;;19.25
64600;BMP280;6553;48.412;9.514;2024-01-30T10:57:22;71597.16;;;19.22
64600;BMP280;6553;48.412;9.514;2024-01-30T10:59:51;71596.53;;;19.24
64600;BMP280;6553;48.412;9.514;2024-01-30T11:02:19;71595.88;;;19.26
64600;BMP280;6553;48.412;9.514;2024-01-30T11:04:45;71599.81;;;19.24
64600;BMP280;6553;48.412;9.514;2024-01-30T11:07:23;71598.66;;;19.26
64600;BMP280;6553;48.412;9.514;2024-01-30T11:09:59;71602.47;;;19.27
64600;BMP280;6553;48.412;9.514;2024-01-30T11:12:29;71600.34;;;19.25
64600;BMP280;6553;48.412;9.514;2024-01-30T11:15:10;71596.94;;;19.27
64600;BMP280;6553;48.412;9.514;2024-01-30T11:17:50;71601.41;;;19.26
64600;BMP280;6553;48.412;9.514;2024-01-30T11:22:51;71604.19;;;19.26
64600;BMP280;6553;48.412;9.514;2024-01-30T11:25:21;71601.94;;;19.26
64600;BMP280;6553;48.412;9.514;2024-01-30T11:27:51;71596.41;;;19.26
64600;BMP280;6553;48.412;9.514;2024-01-30T11:30:27;71601.94;;;19.26
64600;BMP280;6553;48.412;9.514;2024-01-30T11:33:09;71605.13;;;19.29
64600;BMP280;6553;48.412;9.514;2024-01-30T11:35:39;71603.53;;;19.28
64600;BMP280;6553;48.412;9.514;2024-01-30T11:38:07;71595.34;;;19.25
64600;BMP280;6553;48.412;9.514;2024-01-30T11:40:34;71606.19;;;19.30
64600;BMP280;6553;48.412;9.514;2024-01-30T11:43:03;71601.72;;;19.31
64600;BMP280;6553;48.412;9.514;2024-01-30T11:45:31;71605.66;;;19.30
64600;BMP280;6553;48.412;9.514;2024-01-30T11:47:57;71599.59;;;19.29
64600;BMP280;6553;48.412;9.514;2024-01-30T11:50:26;71605.25;;;19.27
64600;BMP280;6553;48.412;9.514;2024-01-30T11:52:51;71606.19;;;19.30
64600;BMP280;6553;48.412;9.514;2024-01-30T11:55:18;71598.09;;;19.25
64600;BMP280;6553;48.412;9.514;2024-01-30T11:57:45;71598.00;;;19.28
64600;BMP280;6553;48.412;9.514;2024-01-30T12:00:19;71607.78;;;19.32
64600;BMP280;6553;48.412;9.514;2024-01-30T12:02:54;71605.66;;;19.30
64600;BMP280;6553;48.412;9.514;2024-01-30T12:05:24;71610.03;;;19.31
64600;BMP280;6553;48.412;9.514;2024-01-30T12:07:50;71608.84;;;19.33
64600;BMP280;6553;48.412;9.514;2024-01-30T12:10:16;71608.84;;;19.33
64600;BMP280;6553;48.412;9.514;2024-01-30T12:12:49;71600.66;;;19.30
64600;BMP280;6553;48.412;9.514;2024-01-30T12:15:17;71607.78;;;19.32
64600;BMP280;6553;48.412;9.514;2024-01-30T12:17:43;71608.84;;;19.33
64600;BMP280;6553;48.412;9.514;2024-01-30T12:20:15;71603.44;;;19.30
64600;BMP280;6553;48.412;9.514;2024-01-30T12:22:47;71608.84;;;19.33
64600;BMP280;6553;48.412;9.514;2024-01-30T12:25:16;71601.72;;;19.31
64600;BMP280;6553;48.412;9.514;2024-01-30T12:27:44;71606.06;;;19.33
64600;BMP280;6553;48.412;9.514;2024-01-30T12:30:13;71608.28;;;19.32
64600;BMP280;6553;48.412;9.514;2024-01-30T12:32:42;71614.16;;;19.38
64600;BMP280;6553;48.412;9.514;2024-01-30T12:35:17;71607.53;;;19.37
64600;BMP280;6553;48.412;9.514;2024-01-30T12:37:44;71609.25;;;19.36
64600;BMP280;6553;48.412;9.514;2024-01-30T12:40:12;71619.69;;;19.38
64600;BMP280;6553;48.412;9.514;2024-01-30T12:42:41;71607.00;;;19.36
64600;BMP280;6553;48.412;9.514;2024-01-30T12:45:13;71609.91;;;19.34
64600;BMP280;6553;48.412;9.514;2024-01-30T12:47:40;71612.03;;;19.36
64600;BMP280;6553;48.412;9.514;2024-01-30T12:50:06;71610.31;;;19.37
64600;BMP280;6553;48.412;9.514;2024-01-30T12:52:32;71614.16;;;19.38
64600;BMP280;6553;48.412;9.514;2024-01-30T12:54:58;71610.31;;;19.37
64600;BMP280;6553;48.412;9.514;2024-01-30T12:57:24;71609.13;;;19.38
64600;BMP280;6553;48.412;9.514;2024-01-30T12:59:50;71611.91;;;19.38
64600;BMP280;6553;48.412;9.514;2024-01-30T13:02:16;71612.44;;;19.39
64600;BMP280;6553;48.412;9.514;2024-01-30T13:04:42;71615.22;;;19.39
64600;BMP280;6553;48.412;9.514;2024-01-30T13:07:08;71610.22;;;19.39
64600;BMP280;6553;48.412;9.514;2024-01-30T13:09:34;71601.28;;;19.28
64600;BMP280;6553;48.412;9.514;2024-01-30T13:12:00;71614.78;;;19.36
64600;BMP280;6553;48.412;9.514;2024-01-30T13:14:25;71609.91;;;19.34
64600;BMP280;6553;48.412;9.514;2024-01-30T13:16:52;71618.38;;;19.42
64600;BMP280;6553;48.412;9.514;2024-01-30T13:19:18;71620.09;;;19.41
64600;BMP280;6553;48.412;9.514;2024-01-30T13:21:44;71609.66;;;19.39
64600;BMP280;6553;48.412;9.514;2024-01-30T13:24:09;71613.50;;;19.40
64600;BMP280;6553;48.412;9.514;2024-01-30T13:26:36;71617.75;;;19.44
64600;BMP280;6553;48.412;9.514;2024-01-30T13:29:02;71616.81;;;19.40
64600;BMP280;6553;48.412;9.514;2024-01-30T13:31:28;71616.28;;;19.40
64600;BMP280;6553;48.412;9.514;2024-01-30T13:33:54;71614.66;;;19.38
64600;BMP280;6553;48.412;9.514;2024-01-30T13:36:21;71622.75;;;19.43
64600;BMP280;6553;48.412;9.514;2024-01-30T13:38:47;71615.63;;;19.42
64600;BMP280;6553;48.412;9.514;2024-01-30T13:41:13;71613.38;;;19.42
64600;BMP280;6553;48.412;9.514;2024-01-30T13:43:39;71612.44;;;19.39
64600;BMP280;6553;48.412;9.514;2024-01-30T13:46:04;71601.19;;;19.31
64600;BMP280;6553;48.412;9.514;2024-01-30T13:48:31;71613.91;;;19.43
64600;BMP280;6553;48.412;9.514;2024-01-30T13:50:57;71617.34;;;19.41
64600;BMP280;6553;48.412;9.514;2024-01-30T13:53:23;71619.47;;;19.43
64600;BMP280;6553;48.412;9.514;2024-01-30T13:55:49;71622.09;;;19.45
64600;BMP280;6553;48.412;9.514;2024-01-30T13:58:15;71619.88;;;19.46
64600;BMP280;6553;48.412;9.514;2024-01-30T14:00:40;71622.63;;;19.46
64600;BMP280;6553;48.412;9.514;2024-01-30T14:03:06;71620.00;;;19.43
64600;BMP280;6553;48.412;9.514;2024-01-30T14:05:32;71621.06;;;19.44
64600;BMP280;6553;48.412;9.514;2024-01-30T14:07:59;71621.59;;;19.45
64600;BMP280;6553;48.412;9.514;2024-01-30T14:10:26;71621.06;;;19.44
64600;BMP280;6553;48.412;9.514;2024-01-30T14:12:52;71621.06;;;19.44
64600;BMP280;6553;48.412;9.514;2024-01-30T14:15:17;71620.00;;;19.43
64600;BMP280;6553;48.412;9.514;2024-01-30T14:17:44;71612.34;;;19.41
64600;BMP280;6553;48.412;9.514;2024-01-30T14:20:11;71621.06;;;19.44
64600;BMP280;6553;48.412;9.514;2024-01-30T14:22:37;71619.47;;;19.43
64600;BMP280;6553;48.412;9.514;2024-01-30T14:25:03;71621.16;;;19.42